createdAt,value
2018-10-05T00:02:25.310Z,13.20
2018-10-05T00:07:18.019Z,13.20
2018-10-05T00:12:10.752Z,13.19
2018-10-05T00:17:03.482Z,13.18
2018-10-05T00:21:56.137Z,13.17
2018-10-05T00:26:48.832Z,13.17
2018-10-05T00:31:41.563Z,13.18
2018-10-05T00:36:34.279Z,13.20
2018-10-05T00:41:26.967Z,13.21
2018-10-05T00:46:19.639Z,13.20
2018-10-05T00:51:12.267Z,13.18
2018-10-05T00:56:05.026Z,13.15
2018-10-05T01:00:57.693Z,13.14
2018-10-05T01:05:50.381Z,13.12
2018-10-05T01:10:43.087Z,13.12
2018-10-05T01:15:35.847Z,13.10
2018-10-05T01:20:28.466Z,13.09
2018-10-05T01:25:21.106Z,13.07
2018-10-05T01:30:13.799Z,13.06
2018-10-05T01:35:06.628Z,13.04
2018-10-05T01:39:59.295Z,13.03
2018-10-05T01:44:52.028Z,13.03
2018-10-05T01:49:44.773Z,13.03
2018-10-05T01:54:37.503Z,13.01
2018-10-05T01:59:30.210Z,13.00
2018-10-05T02:04:22.961Z,13.01
2018-10-05T02:09:15.628Z,13.00
2018-10-05T02:14:08.299Z,12.99
2018-10-05T02:19:00.914Z,12.99
2018-10-05T02:23:53.557Z,13.00
2018-10-05T02:28:46.247Z,13.02
2018-10-05T02:33:38.882Z,13.03
2018-10-05T02:38:31.749Z,13.02
2018-10-05T02:43:24.345Z,13.01
2018-10-05T02:48:17.002Z,13.03
2018-10-05T02:53:09.666Z,13.03
2018-10-05T02:58:02.324Z,13.06
2018-10-05T03:02:54.953Z,13.04
2018-10-05T03:07:47.729Z,13.02
2018-10-05T03:12:40.372Z,13.03
2018-10-05T03:17:33.035Z,13.04
2018-10-05T03:22:25.755Z,13.04
2018-10-05T03:27:18.568Z,13.02
2018-10-05T03:32:11.182Z,12.99
2018-10-05T03:37:03.817Z,12.98
2018-10-05T03:41:56.414Z,12.97
2018-10-05T03:46:49.125Z,12.95
2018-10-05T03:51:41.776Z,12.94
2018-10-05T03:56:34.458Z,12.93
2018-10-05T04:01:27.085Z,12.91
2018-10-05T04:06:19.914Z,12.91
2018-10-05T04:11:12.558Z,12.89
2018-10-05T04:16:05.222Z,12.88
2018-10-05T04:20:57.878Z,12.87
2018-10-05T04:25:50.632Z,12.85
2018-10-05T04:30:43.314Z,12.85
2018-10-05T04:35:36.042Z,12.85
2018-10-05T04:40:28.820Z,12.84
2018-10-05T04:45:21.666Z,12.84
2018-10-05T04:50:14.362Z,12.84
2018-10-05T04:55:07.047Z,12.82
2018-10-05T04:59:59.803Z,12.80
2018-10-05T05:04:52.678Z,12.80
2018-10-05T05:09:45.403Z,12.80
2018-10-05T05:14:38.193Z,12.81
2018-10-05T05:19:30.938Z,12.83
2018-10-05T05:24:23.586Z,12.85
2018-10-05T05:29:16.256Z,12.85
2018-10-05T05:34:08.919Z,12.86
2018-10-05T05:39:01.485Z,12.85
2018-10-05T05:43:54.187Z,12.86
2018-10-05T05:48:46.889Z,12.87
2018-10-05T05:53:39.659Z,12.87
2018-10-05T05:58:32.423Z,12.90
2018-10-05T06:03:25.074Z,12.92
2018-10-05T06:08:17.880Z,12.91
2018-10-05T06:13:10.512Z,12.90
2018-10-05T06:18:03.187Z,12.90
2018-10-05T06:22:55.961Z,12.90
2018-10-05T06:27:48.688Z,12.92
2018-10-05T06:32:41.566Z,13.03
2018-10-05T06:37:34.282Z,13.22
2018-10-05T06:42:27.591Z,13.32
2018-10-05T06:47:20.279Z,13.37
2018-10-05T06:52:12.992Z,13.47
2018-10-05T06:57:05.741Z,13.58
2018-10-05T07:01:58.613Z,13.70
2018-10-05T07:06:51.159Z,13.89
2018-10-05T07:11:43.838Z,14.08
2018-10-05T07:16:36.481Z,14.23
2018-10-05T07:21:29.441Z,14.41
2018-10-05T07:26:22.189Z,14.56
2018-10-05T07:31:14.896Z,14.72
2018-10-05T07:36:07.602Z,14.87
2018-10-05T07:41:00.333Z,15.04
2018-10-05T07:45:52.946Z,15.18
2018-10-05T07:50:45.621Z,15.34
2018-10-05T07:55:38.206Z,15.45
2018-10-05T08:00:30.807Z,15.59
2018-10-05T08:05:23.430Z,15.76
2018-10-05T08:10:16.115Z,15.98
2018-10-05T08:15:08.790Z,16.15
2018-10-05T08:20:01.414Z,16.32
2018-10-05T08:24:54.074Z,16.54
2018-10-05T08:29:46.692Z,16.79
2018-10-05T08:34:39.551Z,16.92
2018-10-05T08:39:32.103Z,17.07
2018-10-05T08:44:24.794Z,17.32
2018-10-05T08:49:17.455Z,17.49
2018-10-05T08:54:10.038Z,17.68
2018-10-05T08:59:02.660Z,17.83
2018-10-05T09:03:55.291Z,18.00
2018-10-05T09:08:48.110Z,18.19
2018-10-05T09:13:40.850Z,18.48
2018-10-05T09:18:33.530Z,18.75
2018-10-05T09:23:26.242Z,18.94
2018-10-05T09:28:18.853Z,19.25
2018-10-05T09:33:11.480Z,19.43
2018-10-05T09:38:04.180Z,19.61
2018-10-05T09:42:56.861Z,19.80
2018-10-05T09:47:49.486Z,20.01
2018-10-05T09:52:42.090Z,20.16
2018-10-05T09:57:34.777Z,20.23
2018-10-05T10:02:33.292Z,20.43
2018-10-05T10:07:26.065Z,20.53
2018-10-05T10:12:18.648Z,20.67
2018-10-05T10:17:11.296Z,20.94
2018-10-05T10:22:03.938Z,20.96
2018-10-05T10:26:56.518Z,21.21
2018-10-05T10:31:49.227Z,21.23
2018-10-05T10:41:41.206Z,21.46
2018-10-05T10:46:34.352Z,21.61
2018-10-05T10:51:27.182Z,21.91
2018-10-05T10:56:19.920Z,21.92
2018-10-05T11:01:12.551Z,21.92
2018-10-05T11:06:05.202Z,21.97
2018-10-05T11:10:57.897Z,22.14
2018-10-05T11:15:50.862Z,22.51
2018-10-05T11:20:43.529Z,22.62
2018-10-05T11:25:36.127Z,22.76
2018-10-05T11:30:28.689Z,22.88
2018-10-05T11:35:21.377Z,22.85
2018-10-05T11:40:14.118Z,22.91
2018-10-05T11:45:06.746Z,22.99
2018-10-05T11:49:59.499Z,22.98
2018-10-05T11:54:52.528Z,22.96
2018-10-05T11:59:45.168Z,23.00
2018-10-05T12:04:37.774Z,22.96
2018-10-05T12:09:30.710Z,23.08
2018-10-05T12:14:23.489Z,23.35
2018-10-05T12:19:16.074Z,23.57
2018-10-05T12:24:08.726Z,23.54
2018-10-05T12:29:01.340Z,23.60
2018-10-05T12:33:54.122Z,23.80
2018-10-05T12:38:46.927Z,23.95
2018-10-05T12:43:39.860Z,23.94
2018-10-05T12:48:32.779Z,23.80
2018-10-05T12:53:25.535Z,23.70
2018-10-05T12:58:18.300Z,23.76
2018-10-05T13:03:11.073Z,23.81
2018-10-05T13:08:03.798Z,24.04
2018-10-05T13:12:56.447Z,24.14
2018-10-05T13:17:49.387Z,24.06
2018-10-05T13:22:42.156Z,23.95
2018-10-05T13:27:34.913Z,23.79
2018-10-05T13:32:27.489Z,23.87
2018-10-05T13:37:20.358Z,23.88
2018-10-05T13:42:12.958Z,23.87
2018-10-05T13:47:05.549Z,23.83
2018-10-05T13:51:58.142Z,23.87
2018-10-05T13:56:51.151Z,23.85
2018-10-05T14:01:43.788Z,23.95
2018-10-05T14:06:36.421Z,23.84
2018-10-05T14:11:29.018Z,23.81
2018-10-05T14:16:21.678Z,23.85
2018-10-05T14:21:14.454Z,23.82
2018-10-05T14:26:07.062Z,23.77
2018-10-05T14:30:59.730Z,23.59
2018-10-05T14:35:52.349Z,23.51
2018-10-05T14:40:44.998Z,23.46
2018-10-05T14:45:37.665Z,23.40
2018-10-05T14:50:30.313Z,23.28
2018-10-05T14:55:22.985Z,23.24
2018-10-05T15:00:15.622Z,23.18
2018-10-05T15:05:08.302Z,23.13
2018-10-05T15:10:00.914Z,23.08
2018-10-05T15:14:53.627Z,23.01
2018-10-05T15:19:46.304Z,22.91
2018-10-05T15:24:39.122Z,22.78
2018-10-05T15:29:32.637Z,22.70
2018-10-05T15:34:25.374Z,22.64
2018-10-05T15:39:18.102Z,22.57
2018-10-05T15:44:10.721Z,22.51
2018-10-05T15:49:03.291Z,22.47
2018-10-05T15:53:55.939Z,22.40
2018-10-05T15:58:48.858Z,22.37
2018-10-05T16:03:41.533Z,22.26
2018-10-05T16:08:34.181Z,22.16
2018-10-05T16:13:26.842Z,22.03
2018-10-05T16:18:19.607Z,21.94
2018-10-05T16:23:12.212Z,21.88
2018-10-05T16:28:04.858Z,21.78
2018-10-05T16:32:57.467Z,21.65
2018-10-05T16:37:51.317Z,21.51
2018-10-05T16:42:44.002Z,21.37
2018-10-05T16:47:36.611Z,21.24
2018-10-05T16:52:29.304Z,21.12
2018-10-05T16:57:21.965Z,21.06
2018-10-05T17:02:14.554Z,20.98
2018-10-05T17:07:07.243Z,20.91
2018-10-05T17:12:00.087Z,20.81
2018-10-05T17:16:52.817Z,20.71
2018-10-05T17:21:45.458Z,20.65
2018-10-05T17:26:38.071Z,20.56
2018-10-05T17:31:30.690Z,20.46
2018-10-05T17:36:23.479Z,20.41
2018-10-05T17:41:16.180Z,20.31
2018-10-05T17:46:08.751Z,20.20
2018-10-05T17:51:01.680Z,20.14
2018-10-05T17:55:54.732Z,20.09
2018-10-05T18:00:47.553Z,20.05
2018-10-05T18:05:40.202Z,19.96
2018-10-05T18:10:33.004Z,19.82
2018-10-05T18:15:25.716Z,19.63
2018-10-05T18:20:18.474Z,19.46
2018-10-05T18:25:11.072Z,19.32
2018-10-05T18:30:04.079Z,19.25
2018-10-05T18:34:56.774Z,19.24
2018-10-05T18:39:49.459Z,19.21
2018-10-05T18:44:42.058Z,19.19
2018-10-05T18:49:34.694Z,19.13
2018-10-05T18:54:27.508Z,19.09
2018-10-05T18:59:20.111Z,19.00
2018-10-05T19:04:12.795Z,18.90
2018-10-05T19:09:06.070Z,18.79
2018-10-05T19:13:58.735Z,18.70
2018-10-05T19:18:51.424Z,18.60
2018-10-05T19:23:44.075Z,18.53
2018-10-05T19:28:36.753Z,18.46
2018-10-05T19:33:29.383Z,18.41
2018-10-05T19:38:22.032Z,18.35
2018-10-05T19:43:14.604Z,18.30
2018-10-05T19:48:07.212Z,18.22
2018-10-05T19:52:59.890Z,18.08
2018-10-05T19:57:52.566Z,18.03
2018-10-05T20:02:45.206Z,17.95
2018-10-05T20:07:38.022Z,17.89
2018-10-05T20:12:30.671Z,17.87
2018-10-05T20:17:23.367Z,17.79
2018-10-05T20:22:16.026Z,17.71
2018-10-05T20:27:08.691Z,17.67
2018-10-05T20:32:01.397Z,17.62
2018-10-05T20:36:54.269Z,17.53
2018-10-05T20:41:46.750Z,17.42
2018-10-05T20:46:39.391Z,17.35
2018-10-05T20:51:35.058Z,17.31
2018-10-05T20:56:27.861Z,17.22
2018-10-05T21:01:20.562Z,17.14
2018-10-05T21:06:13.219Z,17.07
2018-10-05T21:11:05.877Z,16.97
2018-10-05T21:15:58.627Z,16.88
2018-10-05T21:20:51.323Z,16.79
2018-10-05T21:25:44.062Z,16.72
2018-10-05T21:30:36.724Z,16.65
2018-10-05T21:35:29.357Z,16.59
2018-10-05T21:40:23.107Z,16.56
2018-10-05T21:45:15.874Z,16.49
2018-10-05T21:50:08.487Z,16.48
2018-10-05T21:55:01.169Z,16.44
2018-10-05T21:59:53.812Z,16.36
2018-10-05T22:04:46.459Z,16.30
2018-10-05T22:09:39.122Z,16.29
2018-10-05T22:14:31.798Z,16.27
2018-10-05T22:19:24.446Z,16.23
2018-10-05T22:24:17.102Z,16.17
2018-10-05T22:29:09.779Z,16.08
2018-10-05T22:34:02.444Z,16.05
2018-10-05T22:38:55.157Z,16.01
2018-10-05T22:43:48.351Z,15.98
2018-10-05T22:48:40.947Z,15.90
2018-10-05T22:53:33.593Z,15.78
2018-10-05T22:58:26.282Z,15.69
2018-10-05T23:03:18.870Z,15.63
2018-10-05T23:08:11.472Z,15.51
2018-10-05T23:13:04.137Z,15.42
2018-10-05T23:17:56.843Z,15.34
2018-10-05T23:22:49.559Z,15.29
2018-10-05T23:27:42.222Z,15.20
2018-10-05T23:32:34.903Z,15.16
2018-10-05T23:37:27.551Z,15.12
2018-10-05T23:42:20.224Z,15.10
2018-10-05T23:47:12.867Z,15.04
2018-10-05T23:52:22.121Z,15.02
2018-10-05T23:57:14.795Z,14.98
